Time;durP1;ratioP1;P1;durP2;ratioP2;P2;SDS_P1;SDS_P2;PMS_P1;PMS_P2;Temp;Humidity;BMP_temperature;BMP_pressure;BME280_temperature;BME280_humidity;BME280_pressure;Samples;Min_cycle;Max_cycle;Signal;HPM_P1;HPM_P2
2022/01/23 05:05:12;;;;;;;27.67;9.73;;;5.30;99.90;;;;;;4938804;29;20063;-84
2022/01/23 05:07:43;;;;;;;23.13;8.27;;;5.20;99.90;;;;;;4953482;29;20039;-84
2022/01/23 05:10:09;;;;;;;19.52;7.95;;;5.20;99.90;;;;;;4953784;29;20395;-84
2022/01/23 05:12:35;;;;;;;19.88;7.95;;;5.30;99.90;;;;;;4953430;28;20043;-84
2022/01/23 05:15:00;;;;;;;22.90;8.60;;;5.20;99.90;;;;;;4953478;28;20043;-84
2022/01/23 05:17:26;;;;;;;18.08;7.40;;;5.20;99.90;;;;;;4937490;29;20054;-84
2022/01/23 05:19:52;;;;;;;19.08;7.13;;;5.20;99.90;;;;;;4953892;29;20039;-85
2022/01/23 05:24:51;;;;;;;17.92;6.85;;;5.20;99.90;;;;;;4953552;29;20051;-84
2022/01/23 05:27:17;;;;;;;18.25;6.65;;;5.20;99.90;;;;;;4953607;28;20055;-85
2022/01/23 05:29:43;;;;;;;30.15;7.90;;;5.20;99.90;;;;;;4953648;28;20043;-84
2022/01/23 05:32:12;;;;;;;20.35;7.88;;;5.10;99.90;;;;;;4954572;28;20546;-85
2022/01/23 05:34:38;;;;;;;19.05;7.60;;;5.10;99.90;;;;;;4953205;28;20542;-85
2022/01/23 05:37:04;;;;;;;22.50;6.82;;;5.10;99.90;;;;;;4953324;28;20122;-83
2022/01/23 05:39:32;;;;;;;22.30;7.35;;;5.10;99.90;;;;;;4939270;29;20452;-84
2022/01/23 05:41:59;;;;;;;27.48;7.57;;;5.10;99.90;;;;;;4956575;28;20102;-83
2022/01/23 05:44:24;;;;;;;26.13;8.13;;;5.10;99.90;;;;;;4940733;29;20098;-84
2022/01/23 05:46:50;;;;;;;42.53;9.65;;;5.10;99.90;;;;;;4956427;29;20047;-84
2022/01/23 05:49:16;;;;;;;33.35;8.57;;;5.10;99.90;;;;;;4956656;29;20047;-84
2022/01/23 05:51:42;;;;;;;35.88;9.18;;;5.00;99.90;;;;;;4956469;28;20054;-83
2022/01/23 05:54:07;;;;;;;53.92;9.82;;;5.10;99.90;;;;;;4956397;29;20399;-84
2022/01/23 05:56:33;;;;;;;38.85;7.70;;;5.00;99.90;;;;;;4940876;29;20055;-84
2022/01/23 05:58:59;;;;;;;88.10;12.07;;;5.00;99.90;;;;;;4956412;29;20411;-84
2022/01/23 06:01:24;;;;;;;90.18;10.25;;;5.00;99.90;;;;;;4956154;28;20066;-84
2022/01/23 06:03:50;;;;;;;125.60;12.77;;;4.90;99.90;;;;;;4956391;29;20075;-84
2022/01/23 06:06:18;;;;;;;64.60;9.90;;;4.90;99.90;;;;;;4956462;29;20559;-85
2022/01/23 06:08:44;;;;;;;73.53;10.80;;;4.90;99.90;;;;;;4940315;29;20114;-84
2022/01/23 06:11:09;;;;;;;87.60;12.77;;;4.90;99.90;;;;;;4956185;28;20039;-84
2022/01/23 06:13:35;;;;;;;71.20;11.65;;;4.90;99.90;;;;;;4957803;28;20043;-85
2022/01/23 06:16:01;;;;;;;49.22;9.52;;;4.90;99.90;;;;;;4955813;29;20514;-84
2022/01/23 06:18:27;;;;;;;84.53;11.43;;;4.90;99.90;;;;;;4956229;28;20451;-84
2022/01/23 06:20:53;;;;;;;35.33;8.50;;;4.90;99.90;;;;;;4957586;28;20039;-83
2022/01/23 06:23:19;;;;;;;58.30;10.60;;;4.90;99.90;;;;;;4955908;29;20086;-83
2022/01/23 06:25:46;;;;;;;47.80;9.38;;;4.90;99.90;;;;;;4955868;29;20050;-83
2022/01/23 06:28:22;;;;;;;32.97;8.27;;;4.90;99.90;;;;;;4939977;29;20079;-83
2022/01/23 06:30:47;;;;;;;;;;;4.90;99.90;;;;;;4956538;28;20043;-84
2022/01/23 06:33:13;;;;;;;20.33;7.15;;;4.90;99.90;;;;;;4955911;29;20271;-84
2022/01/23 06:35:38;;;;;;;18.40;6.93;;;4.90;99.90;;;;;;4955808;29;20047;-85
2022/01/23 06:38:04;;;;;;;20.77;6.60;;;4.90;99.90;;;;;;4956061;29;20400;-85
2022/01/23 06:40:30;;;;;;;29.25;8.50;;;4.90;99.90;;;;;;4955445;28;20035;-85
2022/01/23 06:42:55;;;;;;;15.98;6.70;;;4.90;99.90;;;;;;4955902;29;20039;-84
2022/01/23 06:45:22;;;;;;;27.55;8.30;;;4.90;99.90;;;;;;4940142;29;20051;-83
2022/01/23 06:47:47;;;;;;;23.90;8.00;;;5.00;99.90;;;;;;4957225;28;20051;-86
2022/01/23 06:50:13;;;;;;;18.45;7.03;;;5.00;99.90;;;;;;4955356;28;20039;-85
2022/01/23 06:52:39;;;;;;;19.73;7.45;;;4.90;99.90;;;;;;4939573;29;20491;-84
2022/01/23 06:55:04;;;;;;;14.90;6.75;;;5.00;99.90;;;;;;4955414;29;20083;-84
2022/01/23 06:57:30;;;;;;;17.90;7.47;;;5.00;99.90;;;;;;4955328;29;20414;-83
2022/01/23 06:59:56;;;;;;;17.88;7.05;;;5.00;99.90;;;;;;4955453;29;20047;-83
2022/01/23 07:02:21;;;;;;;20.52;7.28;;;5.00;99.90;;;;;;4955249;28;20043;-84
2022/01/23 07:04:47;;;;;;;18.42;7.30;;;5.00;99.90;;;;;;4955299;29;20076;-83
2022/01/23 07:07:12;;;;;;;17.98;7.28;;;5.00;99.90;;;;;;4940331;29;20046;-84
2022/01/23 07:09:38;;;;;;;16.75;6.57;;;5.00;99.90;;;;;;4956737;29;20094;-84
2022/01/23 07:12:04;;;;;;;18.48;7.78;;;5.00;99.90;;;;;;4955311;28;20380;-84
2022/01/23 07:14:30;;;;;;;19.15;9.07;;;5.00;99.90;;;;;;4954970;29;20047;-84
2022/01/23 07:16:55;;;;;;;22.45;9.25;;;5.00;99.90;;;;;;4939114;29;20047;-84
2022/01/23 07:19:21;;;;;;;20.17;8.25;;;5.00;99.90;;;;;;4954941;29;20052;-84
2022/01/23 07:21:46;;;;;;;15.35;6.60;;;5.00;99.90;;;;;;4955095;28;20082;-84
2022/01/23 07:24:12;;;;;;;15.15;7.10;;;5.00;99.90;;;;;;4956499;28;20091;-83
2022/01/23 07:26:38;;;;;;;17.83;7.03;;;5.00;99.90;;;;;;4955104;29;20046;-83
2022/01/23 07:29:05;;;;;;;14.65;6.47;;;5.10;99.90;;;;;;4938749;29;20039;-84
2022/01/23 07:34:04;;;;;;;14.00;6.40;;;5.10;99.90;;;;;;4954804;28;20403;-84
2022/01/23 07:36:30;;;;;;;16.02;6.82;;;5.10;99.90;;;;;;4955223;28;20043;-84
2022/01/23 07:38:56;;;;;;;14.85;5.82;;;5.20;99.90;;;;;;4954724;29;20110;-85
2022/01/23 07:41:21;;;;;;;14.68;6.50;;;5.20;99.90;;;;;;4956016;28;20472;-85
2022/01/23 07:43:47;;;;;;;11.98;5.00;;;5.20;99.90;;;;;;4938545;29;20077;-85
2022/01/23 07:46:12;;;;;;;20.73;10.95;;;5.20;99.90;;;;;;4954321;29;20122;-85
2022/01/23 07:48:38;;;;;;;13.80;5.97;;;5.20;99.90;;;;;;4954333;29;20070;-85
2022/01/23 07:51:04;;;;;;;20.73;10.18;;;5.20;99.90;;;;;;4938668;29;20047;-84
2022/01/23 07:53:29;;;;;;;12.75;6.10;;;5.20;99.90;;;;;;4938599;29;20074;-84
2022/01/23 07:55:55;;;;;;;14.57;6.50;;;5.20;99.90;;;;;;4955434;29;20039;-84
2022/01/23 07:58:21;;;;;;;12.43;5.65;;;5.20;99.90;;;;;;4956572;29;20126;-85
2022/01/23 08:00:47;;;;;;;12.73;5.68;;;5.30;99.90;;;;;;4956353;28;20122;-83
2022/01/23 08:03:14;;;;;;;11.93;4.97;;;5.30;99.90;;;;;;4969494;28;20090;-85
2022/01/23 08:05:40;;;;;;;10.68;4.63;;;5.30;99.90;;;;;;4977462;28;20051;-84
2022/01/23 08:08:07;;;;;;;14.30;6.38;;;5.30;99.90;;;;;;4976683;28;20047;-84
2022/01/23 08:10:33;;;;;;;14.02;5.80;;;5.30;99.90;;;;;;4950972;28;20058;-86
2022/01/23 08:12:59;;;;;;;13.48;5.47;;;5.30;99.90;;;;;;4960211;29;20039;-84
2022/01/23 08:15:24;;;;;;;13.18;5.82;;;5.30;99.90;;;;;;4943482;29;20492;-84
2022/01/23 08:17:50;;;;;;;11.52;5.70;;;5.30;99.90;;;;;;4954770;29;20098;-86
2022/01/23 08:20:16;;;;;;;17.50;11.27;;;5.40;99.90;;;;;;4954942;28;20114;-86
2022/01/23 08:22:42;;;;;;;16.23;8.40;;;5.40;99.90;;;;;;4954079;29;20130;-84
2022/01/23 08:25:08;;;;;;;12.43;6.00;;;5.40;99.90;;;;;;4938112;29;20047;-84
2022/01/23 08:27:34;;;;;;;10.38;5.07;;;5.50;99.90;;;;;;4953882;29;20054;-83
2022/01/23 08:30:01;;;;;;;14.00;5.75;;;5.50;99.90;;;;;;4955026;28;20054;-85
2022/01/23 08:32:26;;;;;;;11.20;5.57;;;5.50;99.90;;;;;;4953732;28;20054;-85
2022/01/23 08:34:52;;;;;;;12.63;5.95;;;5.50;99.90;;;;;;4937688;29;20043;-84
2022/01/23 08:37:20;;;;;;;16.05;6.97;;;5.50;99.90;;;;;;4961077;28;20035;-84
2022/01/23 08:39:46;;;;;;;14.15;6.18;;;5.50;99.90;;;;;;4973449;28;20089;-84
2022/01/23 08:42:16;;;;;;;14.93;6.20;;;5.50;99.90;;;;;;4972848;28;20522;-85
2022/01/23 08:44:42;;;;;;;18.80;7.13;;;5.50;99.90;;;;;;4974463;28;20130;-85
2022/01/23 08:47:08;;;;;;;17.05;6.53;;;5.50;99.90;;;;;;4974908;28;20070;-85
2022/01/23 08:49:36;;;;;;;17.00;6.95;;;5.50;99.90;;;;;;4974468;28;20043;-83
2022/01/23 08:52:02;;;;;;;19.13;7.63;;;5.60;99.90;;;;;;4974788;28;20114;-84
2022/01/23 08:54:28;;;;;;;18.98;7.32;;;5.50;99.90;;;;;;4973108;28;20610;-83
2022/01/23 08:56:54;;;;;;;17.40;6.82;;;5.50;99.90;;;;;;4973062;28;20039;-83
2022/01/23 08:59:20;;;;;;;15.05;7.00;;;5.60;99.90;;;;;;4972873;28;20094;-84
2022/01/23 09:01:46;;;;;;;16.30;8.27;;;5.60;99.90;;;;;;4956821;28;20394;-84
2022/01/23 09:04:16;;;;;;;21.25;8.70;;;5.60;99.90;;;;;;4972855;28;20052;-84
2022/01/23 09:06:46;;;;;;;18.50;7.85;;;5.60;99.90;;;;;;4957084;28;20121;-86
2022/01/23 09:09:19;;;;;;;18.10;7.63;;;5.70;99.90;;;;;;4956912;28;20090;-85
2022/01/23 09:14:21;;;;;;;17.63;7.05;;;5.70;99.90;;;;;;4955274;28;20051;-86
2022/01/23 09:16:48;;;;;;;14.98;6.65;;;5.80;99.90;;;;;;4957839;29;20057;-87
2022/01/23 09:19:17;;;;;;;16.75;7.00;;;5.80;99.90;;;;;;4957512;28;20091;-86
2022/01/23 09:21:44;;;;;;;13.88;6.57;;;5.80;99.90;;;;;;4958523;28;20046;-86
2022/01/23 09:24:10;;;;;;;16.70;6.97;;;5.80;99.90;;;;;;4958398;28;20055;-86
2022/01/23 09:26:37;;;;;;;14.88;6.47;;;5.80;99.90;;;;;;4941070;29;20039;-86
2022/01/23 09:29:18;;;;;;;14.43;6.72;;;5.90;99.90;;;;;;4957619;28;20039;-86
2022/01/23 09:31:49;;;;;;;15.10;6.93;;;5.90;99.90;;;;;;4957013;28;20122;-86
2022/01/23 09:34:20;;;;;;;17.38;7.25;;;5.90;99.90;;;;;;4957325;28;20039;-85
2022/01/23 09:36:47;;;;;;;16.10;6.88;;;5.90;99.90;;;;;;4956895;28;20090;-85
2022/01/23 09:39:15;;;;;;;15.02;6.43;;;5.90;99.90;;;;;;4958286;28;20126;-85
2022/01/23 09:41:47;;;;;;;16.08;6.57;;;5.90;99.90;;;;;;4956807;28;20475;-86
2022/01/23 09:44:31;;;;;;;14.02;6.72;;;5.90;99.90;;;;;;4957344;28;20047;-87
2022/01/23 09:46:57;;;;;;;16.10;6.93;;;6.00;99.90;;;;;;4940554;29;20046;-85
2022/01/23 09:49:25;;;;;;;18.27;7.78;;;6.00;99.90;;;;;;4956837;28;20432;-85
2022/01/23 09:51:54;;;;;;;13.13;6.18;;;6.00;99.90;;;;;;4956869;28;20483;-86
2022/01/23 09:54:21;;;;;;;16.33;6.10;;;6.10;99.90;;;;;;4956400;28;20047;-84
2022/01/23 09:56:47;;;;;;;15.88;6.75;;;6.10;99.90;;;;;;4957790;28;20055;-84
2022/01/23 09:59:14;;;;;;;14.15;6.80;;;6.10;99.90;;;;;;4955846;28;20087;-86
2022/01/23 10:01:41;;;;;;;16.05;7.13;;;6.10;99.90;;;;;;4956285;28;20070;-85
2022/01/23 10:04:08;;;;;;;14.80;7.35;;;6.10;99.90;;;;;;4956273;28;20047;-85
2022/01/23 10:06:34;;;;;;;22.70;11.30;;;6.20;99.90;;;;;;4957833;28;20050;-86
2022/01/23 10:09:06;;;;;;;17.20;8.20;;;6.20;99.90;;;;;;4956482;29;20356;-85
2022/01/23 10:11:37;;;;;;;17.88;8.35;;;6.20;99.90;;;;;;4956954;28;20043;-81
2022/01/23 10:14:02;;;;;;;17.13;7.68;;;6.20;99.90;;;;;;4956149;28;20083;-85
2022/01/23 10:16:30;;;;;;;15.80;7.18;;;6.30;99.90;;;;;;4956375;29;20154;-85
2022/01/23 10:18:56;;;;;;;18.88;8.15;;;6.30;99.90;;;;;;4955987;28;20039;-84
2022/01/23 10:21:22;;;;;;;20.50;7.95;;;6.30;99.90;;;;;;4940116;29;20046;-84
2022/01/23 10:23:49;;;;;;;21.90;9.30;;;6.30;99.90;;;;;;4956305;28;20088;-84
2022/01/23 10:26:38;;;;;;;20.13;9.20;;;6.30;99.90;;;;;;4954961;28;20047;-83
2022/01/23 10:29:22;;;;;;;24.50;9.98;;;6.40;99.90;;;;;;4940828;29;20054;-82
2022/01/23 10:32:07;;;;;;;23.10;9.90;;;6.40;99.90;;;;;;4955611;28;20053;-84
2022/01/23 10:34:51;;;;;;;21.88;9.15;;;6.40;99.90;;;;;;4955909;29;20387;-84
2022/01/23 10:37:41;;;;;;;22.83;8.98;;;6.50;99.90;;;;;;4955953;29;20067;-79
2022/01/23 10:40:21;;;;;;;19.63;9.05;;;6.50;99.90;;;;;;4955993;28;20118;-82
2022/01/23 10:43:06;;;;;;;27.83;14.85;;;6.50;99.90;;;;;;4956025;29;20086;-83
2022/01/23 10:48:48;;;;;;;25.73;12.55;;;6.60;99.90;;;;;;4957015;28;20047;-83
2022/01/23 10:51:19;;;;;;;22.33;9.27;;;6.60;99.90;;;;;;4952750;28;20055;-81
2022/01/23 10:54:05;;;;;;;15.35;8.30;;;6.60;99.90;;;;;;4954887;29;20050;-80
2022/01/23 10:56:35;;;;;;;14.23;7.85;;;6.60;99.90;;;;;;4955853;28;20476;-83
2022/01/23 10:59:09;;;;;;;11.98;6.25;;;6.70;99.90;;;;;;4939947;29;20050;-80
2022/01/23 11:01:36;;;;;;;12.57;6.50;;;6.70;99.90;;;;;;4955149;28;20043;-82
2022/01/23 11:04:04;;;;;;;12.07;5.72;;;6.70;99.90;;;;;;4955476;28;20066;-84
2022/01/23 11:06:29;;;;;;;11.52;4.53;;;6.70;99.90;;;;;;4955243;28;20070;-82
2022/01/23 11:09:09;;;;;;;10.43;5.50;;;6.80;99.90;;;;;;4955299;28;20043;-88
2022/01/23 11:11:47;;;;;;;14.40;6.22;;;6.80;99.90;;;;;;4955402;28;20041;-81
2022/01/23 11:19:51;;;;;;;7.50;3.95;;;6.80;99.90;;;;;;4954904;29;20055;-83
2022/01/23 11:22:26;;;;;;;8.60;4.20;;;6.90;99.90;;;;;;4939124;29;20043;-83
2022/01/23 11:24:55;;;;;;;7.20;3.73;;;6.90;99.90;;;;;;4939249;29;20046;-82
2022/01/23 11:27:22;;;;;;;8.00;3.50;;;7.00;99.90;;;;;;4954761;29;20035;-82
2022/01/23 11:29:58;;;;;;;7.32;3.10;;;7.00;99.90;;;;;;4938733;29;20050;-77
2022/01/23 11:32:27;;;;;;;4.85;2.83;;;7.00;99.90;;;;;;4955903;28;20554;-82
2022/01/23 11:35:03;;;;;;;6.93;2.40;;;7.10;99.90;;;;;;4954539;28;20043;-82
2022/01/23 11:37:29;;;;;;;4.75;2.47;;;7.10;99.90;;;;;;4954140;28;20475;-82
2022/01/23 11:40:01;;;;;;;5.78;2.50;;;7.10;99.90;;;;;;4954806;28;20480;-82
2022/01/23 11:50:48;;;;;;;4.22;2.00;;;7.20;99.90;;;;;;4954430;28;20051;-83
2022/01/23 11:56:40;;;;;;;2.60;1.23;;;7.30;99.90;;;;;;4955892;29;20043;-82
2022/01/23 11:59:16;;;;;;;3.55;1.20;;;7.30;99.90;;;;;;4938289;29;20039;-83
2022/01/23 12:01:44;;;;;;;4.05;1.58;;;7.40;99.90;;;;;;4955911;28;20039;-82
2022/01/23 12:04:22;;;;;;;3.75;1.55;;;7.40;99.90;;;;;;4965170;29;20070;-82
2022/01/23 12:07:17;;;;;;;4.35;1.70;;;7.40;99.90;;;;;;4963907;28;20067;-82
2022/01/23 12:10:13;;;;;;;6.72;1.70;;;7.40;99.90;;;;;;4970198;28;20491;-81
2022/01/23 12:12:42;;;;;;;6.70;1.70;;;7.40;99.90;;;;;;4958611;29;20042;-82
2022/01/23 12:18:22;;;;;;;3.92;1.33;;;7.50;99.90;;;;;;4955252;29;20397;-82
2022/01/23 12:20:50;;;;;;;5.57;1.50;;;7.50;99.90;;;;;;4954572;28;20101;-82
2022/01/23 12:23:17;;;;;;;2.20;1.10;;;7.50;99.90;;;;;;4954257;28;20066;-82
2022/01/23 12:25:49;;;;;;;2.15;1.10;;;7.50;99.90;;;;;;4955475;28;20416;-82
2022/01/23 12:28:35;;;;;;;2.60;1.25;;;7.50;99.90;;;;;;4938130;29;20074;-82
2022/01/23 12:31:19;;;;;;;3.88;1.60;;;7.50;99.90;;;;;;4953218;28;20527;-82
2022/01/23 12:33:52;;;;;;;5.10;1.70;;;7.50;99.90;;;;;;4953883;28;20050;-82
2022/01/23 12:36:27;;;;;;;3.95;1.30;;;7.50;99.90;;;;;;4953472;28;20042;-83
2022/01/23 12:39:14;;;;;;;3.55;1.77;;;7.50;99.90;;;;;;4955349;28;20043;-81
2022/01/23 12:42:02;;;;;;;3.35;1.55;;;7.60;99.90;;;;;;4953723;28;20047;-82
2022/01/23 12:44:28;;;;;;;5.50;1.83;;;7.50;99.90;;;;;;4953763;29;20130;-82
2022/01/23 12:47:03;;;;;;;3.80;1.80;;;7.60;99.90;;;;;;4937984;29;20125;-83
2022/01/23 12:49:50;;;;;;;3.55;1.80;;;7.60;99.90;;;;;;4940307;29;20523;-83
2022/01/23 12:52:21;;;;;;;4.95;2.13;;;7.60;99.90;;;;;;4957538;28;20054;-82
2022/01/23 12:54:47;;;;;;;5.68;2.78;;;7.60;99.90;;;;;;4958784;28;20411;-83
2022/01/23 12:57:20;;;;;;;4.28;2.15;;;7.60;99.90;;;;;;4957717;29;20039;-82
2022/01/23 12:59:58;;;;;;;4.75;2.25;;;7.60;99.90;;;;;;4957716;28;20497;-82
2022/01/23 13:02:27;;;;;;;3.88;1.95;;;7.60;99.90;;;;;;4957304;28;20043;-81
2022/01/23 13:04:55;;;;;;;4.10;1.80;;;7.60;99.90;;;;;;4957203;28;20054;-80
2022/01/23 13:10:49;;;;;;;4.32;2.08;;;7.60;99.90;;;;;;4956894;28;20170;-84
2022/01/23 13:13:57;;;;;;;5.35;2.40;;;7.50;99.90;;;;;;4956998;29;20456;-82
2022/01/23 13:18:43;;;;;;;4.68;2.70;;;7.50;99.90;;;;;;4957051;28;20433;-82
2022/01/23 13:29:58;;;;;;;5.47;3.38;;;7.40;99.90;;;;;;4957579;28;20488;-83
2022/01/23 13:32:41;;;;;;;7.22;3.70;;;7.40;99.90;;;;;;4956877;28;20099;-84
2022/01/23 13:35:12;;;;;;;7.55;3.25;;;7.40;99.90;;;;;;4956705;29;20039;-83
2022/01/23 13:37:46;;;;;;;7.38;3.47;;;7.50;99.90;;;;;;4940977;29;20116;-84
2022/01/23 13:40:16;;;;;;;7.40;3.97;;;7.40;99.90;;;;;;4956795;28;20031;-84
2022/01/23 13:48:53;;;;;;;6.53;2.97;;;7.40;99.90;;;;;;4956464;29;20059;-85
2022/01/23 13:59:25;;;;;;;7.35;3.95;;;7.40;99.90;;;;;;4957213;28;20388;-79
2022/01/23 14:02:06;;;;;;;6.07;3.00;;;7.40;99.90;;;;;;4968597;28;20043;-81
2022/01/23 14:04:41;;;;;;;7.15;3.83;;;7.40;99.90;;;;;;4959830;28;20502;-81
2022/01/23 14:07:07;;;;;;;6.97;3.67;;;7.40;99.90;;;;;;4943504;28;20420;-81
2022/01/23 14:09:44;;;;;;;7.88;3.63;;;7.40;99.90;;;;;;4956145;29;20046;-81
2022/01/23 14:12:15;;;;;;;6.65;3.50;;;7.40;99.90;;;;;;4956281;28;20111;-80
2022/01/23 14:14:51;;;;;;;6.55;3.70;;;7.40;99.90;;;;;;4955916;28;20548;-81
2022/01/23 14:17:18;;;;;;;6.85;3.53;;;7.30;99.90;;;;;;4939883;29;20081;-81
2022/01/23 14:20:05;;;;;;;6.35;3.50;;;7.40;99.90;;;;;;4956292;28;20122;-81
2022/01/23 14:22:33;;;;;;;7.13;4.10;;;7.40;99.90;;;;;;4957231;28;20054;-81
2022/01/23 14:25:17;;;;;;;6.50;3.83;;;7.40;99.90;;;;;;4955785;28;20498;-81
2022/01/23 14:27:46;;;;;;;4.70;3.10;;;7.40;99.90;;;;;;4939901;29;20054;-80
2022/01/23 14:30:21;;;;;;;7.10;3.30;;;7.40;99.90;;;;;;4955800;28;20046;-81
2022/01/23 14:32:52;;;;;;;5.80;2.95;;;7.40;99.90;;;;;;4955771;28;20087;-80
2022/01/23 14:35:20;;;;;;;6.50;3.33;;;7.40;99.90;;;;;;4955735;28;20051;-81
2022/01/23 14:37:48;;;;;;;5.20;3.20;;;7.30;99.90;;;;;;4955832;28;20539;-80
2022/01/23 14:40:21;;;;;;;6.25;3.13;;;7.30;99.90;;;;;;4955543;28;20054;-80
2022/01/23 14:42:59;;;;;;;6.70;3.10;;;7.30;99.90;;;;;;4939698;29;20043;-81
2022/01/23 14:45:27;;;;;;;4.68;3.10;;;7.30;99.90;;;;;;4955775;29;20528;-80
2022/01/23 14:47:53;;;;;;;7.75;3.33;;;7.30;99.90;;;;;;4939626;29;20070;-82
2022/01/23 14:50:23;;;;;;;4.85;2.90;;;7.30;99.90;;;;;;4956847;28;20103;-81
2022/01/23 14:52:48;;;;;;;5.70;3.00;;;7.30;99.90;;;;;;4939396;29;20050;-79
2022/01/23 14:55:14;;;;;;;6.40;3.28;;;7.20;99.90;;;;;;4939184;29;20035;-80
2022/01/23 14:57:41;;;;;;;5.60;3.30;;;7.30;99.90;;;;;;4955348;29;20106;-80
2022/01/23 15:00:09;;;;;;;7.15;3.53;;;7.20;99.90;;;;;;4955233;28;20130;-81
2022/01/23 15:02:35;;;;;;;6.00;3.25;;;7.20;99.90;;;;;;4955225;28;20047;-81
2022/01/23 15:05:03;;;;;;;5.65;3.30;;;7.20;99.90;;;;;;4956314;29;20395;-82
2022/01/23 15:07:37;;;;;;;5.70;3.08;;;7.20;99.90;;;;;;4946800;28;20046;-82
2022/01/23 15:10:04;;;;;;;6.30;3.30;;;7.20;99.90;;;;;;4936409;29;20084;-80
2022/01/23 15:12:30;;;;;;;4.40;2.75;;;7.20;99.90;;;;;;4919957;29;20123;-80
2022/01/23 15:14:55;;;;;;;6.82;3.35;;;7.20;99.90;;;;;;4935874;29;20175;-82
2022/01/23 15:17:21;;;;;;;7.53;4.10;;;7.20;99.90;;;;;;4935707;29;20040;-82
2022/01/23 15:19:47;;;;;;;5.80;3.00;;;7.20;99.90;;;;;;4935363;29;20480;-83
2022/01/23 15:22:13;;;;;;;7.50;3.08;;;7.10;99.90;;;;;;4934691;29;20051;-82
2022/01/23 15:24:39;;;;;;;5.57;3.15;;;7.10;99.90;;;;;;4935122;29;20052;-82
2022/01/23 15:27:05;;;;;;;8.68;3.53;;;7.10;99.90;;;;;;4920095;29;20043;-82
2022/01/23 15:29:31;;;;;;;8.10;3.60;;;7.10;99.90;;;;;;4935239;29;20098;-81
2022/01/23 15:31:58;;;;;;;5.03;3.25;;;7.10;99.90;;;;;;4918526;29;20043;-82
2022/01/23 15:34:23;;;;;;;5.30;3.50;;;7.10;99.90;;;;;;4918855;29;20040;-82
2022/01/23 15:36:52;;;;;;;4.93;3.35;;;7.10;99.90;;;;;;4934422;29;20486;-82
2022/01/23 15:39:20;;;;;;;5.38;3.13;;;7.10;99.90;;;;;;4934695;29;20083;-81
2022/01/23 15:41:46;;;;;;;6.80;3.33;;;7.10;99.90;;;;;;4934555;29;20075;-81
2022/01/23 15:44:12;;;;;;;5.80;3.30;;;7.00;99.90;;;;;;4934386;29;20477;-82
2022/01/23 15:46:38;;;;;;;5.85;3.47;;;7.00;99.90;;;;;;4918867;29;20039;-81
2022/01/23 15:49:07;;;;;;;5.65;3.55;;;7.00;99.90;;;;;;4934562;29;20142;-81
2022/01/23 15:51:33;;;;;;;7.78;3.47;;;7.00;99.90;;;;;;4934252;29;20044;-82
2022/01/23 15:53:59;;;;;;;4.78;3.35;;;7.00;99.90;;;;;;4934157;29;20164;-83
2022/01/23 15:56:24;;;;;;;6.70;3.60;;;7.00;99.90;;;;;;4933984;29;20181;-82
2022/01/23 15:58:50;;;;;;;7.43;3.58;;;7.00;99.90;;;;;;4935310;29;20047;-82
2022/01/23 16:01:16;;;;;;;5.80;3.50;;;7.00;99.90;;;;;;4933958;29;20058;-81
2022/01/23 16:03:42;;;;;;;8.90;3.65;;;7.00;99.90;;;;;;4918256;29;20077;-81
2022/01/23 16:06:07;;;;;;;7.35;3.65;;;6.90;99.90;;;;;;4934393;29;20047;-80
2022/01/23 16:08:35;;;;;;;7.80;3.78;;;7.00;99.90;;;;;;4918078;29;20477;-81
2022/01/23 16:11:02;;;;;;;9.75;4.30;;;6.90;99.90;;;;;;4933943;29;20097;-80
2022/01/23 16:13:30;;;;;;;8.07;4.13;;;6.90;99.90;;;;;;4934266;29;20056;-82
2022/01/23 16:15:58;;;;;;;7.35;3.70;;;6.90;99.90;;;;;;4934059;29;20468;-82
2022/01/23 16:18:24;;;;;;;7.05;3.85;;;6.90;99.90;;;;;;4945416;29;20126;-81
2022/01/23 16:20:50;;;;;;;6.20;3.83;;;6.90;99.90;;;;;;4944485;29;20074;-81
2022/01/23 16:23:15;;;;;;;7.10;4.38;;;6.90;99.90;;;;;;4953100;29;20090;-82
2022/01/23 16:25:41;;;;;;;7.05;4.10;;;6.90;99.90;;;;;;4948296;29;20047;-81
2022/01/23 16:28:07;;;;;;;10.70;4.75;;;6.80;99.90;;;;;;4971259;29;20047;-82
2022/01/23 16:30:50;;;;;;;9.32;4.65;;;6.90;99.90;;;;;;4974233;29;20074;-81
2022/01/23 16:33:17;;;;;;;10.75;4.40;;;6.80;99.90;;;;;;4972051;28;20039;-84
2022/01/23 16:35:43;;;;;;;5.88;4.05;;;6.90;99.90;;;;;;4956396;28;20043;-82
2022/01/23 16:38:11;;;;;;;7.55;4.18;;;6.90;99.90;;;;;;4954260;29;20039;-82
2022/01/23 16:40:39;;;;;;;9.43;4.43;;;6.80;99.90;;;;;;4952946;28;20488;-83
2022/01/23 16:43:04;;;;;;;9.20;4.50;;;6.90;99.90;;;;;;4953086;28;20547;-85
2022/01/23 16:45:30;;;;;;;8.23;4.85;;;6.80;99.90;;;;;;4953185;29;20122;-85
2022/01/23 16:47:56;;;;;;;7.82;4.43;;;6.80;99.90;;;;;;4953141;29;20476;-84
2022/01/23 16:50:23;;;;;;;6.82;4.25;;;6.80;99.90;;;;;;4952682;29;20043;-84
2022/01/23 16:52:48;;;;;;;11.43;4.93;;;6.80;99.90;;;;;;4952423;28;20046;-81
2022/01/23 16:55:14;;;;;;;8.82;4.10;;;6.80;99.90;;;;;;4936453;29;20495;-82
2022/01/23 16:57:41;;;;;;;7.50;4.40;;;6.80;99.90;;;;;;4952695;29;20046;-82
2022/01/23 17:00:07;;;;;;;7.82;4.07;;;6.80;99.90;;;;;;4953179;29;20043;-82
2022/01/23 17:02:33;;;;;;;8.30;5.10;;;6.80;99.90;;;;;;4937356;29;20039;-83
2022/01/23 17:04:58;;;;;;;10.48;4.43;;;6.80;99.90;;;;;;4953594;29;20400;-83
2022/01/23 17:07:24;;;;;;;7.63;4.20;;;6.80;99.90;;;;;;4937557;29;20070;-81
2022/01/23 17:09:49;;;;;;;6.53;4.03;;;6.80;99.90;;;;;;4954302;29;20039;-83
2022/01/23 17:12:15;;;;;;;6.70;3.92;;;6.80;99.90;;;;;;4953781;29;20566;-83
2022/01/23 17:14:41;;;;;;;11.88;6.00;;;6.70;99.90;;;;;;4953580;29;20086;-83
2022/01/23 17:17:06;;;;;;;10.45;4.60;;;6.80;99.90;;;;;;4953373;29;20046;-83
2022/01/23 17:19:32;;;;;;;8.63;4.63;;;6.80;99.90;;;;;;4954529;29;20089;-83
2022/01/23 17:21:58;;;;;;;9.15;5.25;;;6.80;99.90;;;;;;4953436;29;20044;-84
2022/01/23 17:24:24;;;;;;;8.13;5.18;;;6.80;99.90;;;;;;4937323;29;20082;-83
2022/01/23 17:26:50;;;;;;;9.70;5.13;;;6.70;99.90;;;;;;4953136;29;20121;-82
2022/01/23 17:29:16;;;;;;;9.10;5.18;;;6.70;99.90;;;;;;4953297;28;20134;-83
2022/01/23 17:31:41;;;;;;;8.10;4.47;;;6.80;99.90;;;;;;4953268;29;20599;-82
2022/01/23 17:34:07;;;;;;;9.05;5.00;;;6.70;99.90;;;;;;4937299;29;20490;-83
2022/01/23 17:36:33;;;;;;;8.75;5.00;;;6.70;99.90;;;;;;4957112;29;20187;-83
2022/01/23 17:38:58;;;;;;;9.80;4.65;;;6.70;99.90;;;;;;4956850;29;20043;-83
2022/01/23 17:41:24;;;;;;;6.88;4.60;;;6.70;99.90;;;;;;4956548;29;20039;-83
2022/01/23 17:43:50;;;;;;;8.20;5.45;;;6.70;99.90;;;;;;4956718;29;20392;-83
2022/01/23 17:46:22;;;;;;;8.52;5.22;;;6.70;99.90;;;;;;4940676;29;20094;-82
2022/01/23 17:49:03;;;;;;;8.95;5.43;;;6.70;99.90;;;;;;4957196;29;20078;-83
2022/01/23 17:51:31;;;;;;;9.98;5.75;;;6.70;99.90;;;;;;4956509;28;20047;-83
2022/01/23 17:53:59;;;;;;;9.35;5.75;;;6.70;99.90;;;;;;4956540;28;20214;-82
2022/01/23 17:56:25;;;;;;;6.82;4.30;;;6.70;99.90;;;;;;4956520;29;20174;-82
2022/01/23 17:58:51;;;;;;;7.43;4.03;;;6.70;99.90;;;;;;4956679;28;20332;-82
2022/01/23 18:01:16;;;;;;;8.23;4.20;;;6.70;99.90;;;;;;4955938;29;20074;-82
2022/01/23 18:03:42;;;;;;;8.65;4.07;;;6.70;99.90;;;;;;4956318;29;20043;-83
2022/01/23 18:06:23;;;;;;;7.13;4.57;;;6.70;99.90;;;;;;4955755;28;20075;-84
2022/01/23 18:08:50;;;;;;;6.68;4.18;;;6.70;99.90;;;;;;4956040;29;20154;-76
2022/01/23 18:11:16;;;;;;;9.20;4.45;;;6.70;99.90;;;;;;4955975;29;20054;-85
2022/01/23 18:13:54;;;;;;;6.28;4.18;;;6.70;99.90;;;;;;4956411;28;20046;-84
2022/01/23 18:16:20;;;;;;;7.82;4.75;;;6.70;99.90;;;;;;4956922;29;20425;-85
2022/01/23 18:18:45;;;;;;;13.73;5.65;;;6.70;99.90;;;;;;4957386;28;20079;-86
2022/01/23 18:21:12;;;;;;;10.93;4.97;;;6.70;99.90;;;;;;4955570;29;20049;-84
2022/01/23 18:23:38;;;;;;;8.10;4.88;;;6.70;99.90;;;;;;4974876;28;20043;-86
2022/01/23 18:26:04;;;;;;;9.65;4.95;;;6.70;99.90;;;;;;4974948;28;20047;-86
2022/01/23 18:28:32;;;;;;;8.13;5.22;;;6.60;99.90;;;;;;4975401;28;20046;-84
2022/01/23 18:30:58;;;;;;;8.65;5.35;;;6.70;99.90;;;;;;4969519;28;20089;-86
2022/01/23 18:33:25;;;;;;;8.40;4.97;;;6.60;99.90;;;;;;4956905;28;20039;-85
2022/01/23 18:35:51;;;;;;;6.63;4.75;;;6.60;99.90;;;;;;4955545;28;20407;-85
2022/01/23 18:38:17;;;;;;;8.05;5.05;;;6.60;99.90;;;;;;4955435;28;20209;-84
2022/01/23 18:40:43;;;;;;;8.43;5.43;;;6.60;99.90;;;;;;4955747;28;20043;-84
2022/01/23 18:43:08;;;;;;;9.40;5.05;;;6.60;99.90;;;;;;4939339;29;20051;-85
2022/01/23 18:45:34;;;;;;;8.27;4.88;;;6.60;99.90;;;;;;4954913;28;20392;-84
2022/01/23 18:48:00;;;;;;;6.72;5.00;;;6.60;99.90;;;;;;4958386;28;20133;-85
2022/01/23 18:50:26;;;;;;;8.35;5.65;;;6.60;99.90;;;;;;4958500;28;20043;-84
2022/01/23 18:55:26;;;;;;;9.77;5.85;;;6.60;99.90;;;;;;4968341;28;20499;-83
2022/01/23 18:58:04;;;;;;;8.10;5.40;;;6.60;99.90;;;;;;4957773;28;20146;-84
2022/01/23 19:00:32;;;;;;;8.25;5.75;;;6.60;99.90;;;;;;4976125;28;20069;-84
2022/01/23 19:03:00;;;;;;;8.15;5.43;;;6.60;99.90;;;;;;4977681;28;20097;-84
2022/01/23 19:05:33;;;;;;;8.32;5.70;;;6.60;99.90;;;;;;4974079;28;20050;-83
2022/01/23 19:10:36;;;;;;;9.27;5.72;;;6.60;99.90;;;;;;4974702;28;20046;-87